sensor_id;sensor_type;location;lat;lon;timestamp;temperature;humidity
4324;DHT22;2175;51.018;6.994;2023-04-15T00:00:06;7.30;99.90
4324;DHT22;2175;51.018;6.994;2023-04-15T00:02:32;7.20;99.90
4324;DHT22;2175;51.018;6.994;2023-04-15T00:04:57;7.20;99.90
4324;DHT22;2175;51.018;6.994;2023-04-15T00:07:23;7.30;99.90
4324;DHT22;2175;51.018;6.994;2023-04-15T00:09:48;7.20;99.90
4324;DHT22;2175;51.018;6.994;2023-04-15T00:12:14;7.20;99.90
4324;DHT22;2175;51.018;6.994;2023-04-15T00:14:40;7.20;99.90
4324;DHT22;2175;51.018;6.994;2023-04-15T00:17:06;7.10;99.90
4324;DHT22;2175;51.018;6.994;2023-04-15T00:19:31;7.10;99.90
4324;DHT22;2175;51.018;6.994;2023-04-15T00:21:58;7.10;99.90
4324;DHT22;2175;51.018;6.994;2023-04-15T00:24:24;7.00;99.90
4324;DHT22;2175;51.018;6.994;2023-04-15T00:27:07;7.00;99.90
4324;DHT22;2175;51.018;6.994;2023-04-15T00:30:02;7.00;99.90
4324;DHT22;2175;51.018;6.994;2023-04-15T00:32:38;6.90;99.90
4324;DHT22;2175;51.018;6.994;2023-04-15T00:35:04;6.90;99.90
4324;DHT22;2175;51.018;6.994;2023-04-15T00:37:30;6.80;99.90
4324;DHT22;2175;51.018;6.994;2023-04-15T00:40:00;6.80;99.90
4324;DHT22;2175;51.018;6.994;2023-04-15T00:42:26;6.70;99.90
4324;DHT22;2175;51.018;6.994;2023-04-15T00:44:52;6.70;99.90
4324;DHT22;2175;51.018;6.994;2023-04-15T00:47:23;6.60;99.90
4324;DHT22;2175;51.018;6.994;2023-04-15T00:49:49;6.60;99.90
4324;DHT22;2175;51.018;6.994;2023-04-15T00:52:14;6.60;99.90
4324;DHT22;2175;51.018;6.994;2023-04-15T00:54:40;6.50;99.90
4324;DHT22;2175;51.018;6.994;2023-04-15T00:57:06;6.40;99.90
4324;DHT22;2175;51.018;6.994;2023-04-15T00:59:33;6.40;99.90
4324;DHT22;2175;51.018;6.994;2023-04-15T01:01:59;6.20;99.90
4324;DHT22;2175;51.018;6.994;2023-04-15T01:04:25;6.20;99.90
4324;DHT22;2175;51.018;6.994;2023-04-15T01:06:51;6.20;99.90
4324;DHT22;2175;51.018;6.994;2023-04-15T01:09:17;6.20;99.90
4324;DHT22;2175;51.018;6.994;2023-04-15T01:11:43;6.20;99.90
4324;DHT22;2175;51.018;6.994;2023-04-15T01:14:09;6.20;99.90
4324;DHT22;2175;51.018;6.994;2023-04-15T01:16:36;6.20;99.90
4324;DHT22;2175;51.018;6.994;2023-04-15T01:19:05;6.20;99.90
4324;DHT22;2175;51.018;6.994;2023-04-15T01:21:36;6.10;99.90
4324;DHT22;2175;51.018;6.994;2023-04-15T01:24:08;6.00;99.90
4324;DHT22;2175;51.018;6.994;2023-04-15T01:26:36;6.00;99.90
4324;DHT22;2175;51.018;6.994;2023-04-15T01:29:02;6.00;99.90
4324;DHT22;2175;51.018;6.994;2023-04-15T01:31:27;6.00;99.90
4324;DHT22;2175;51.018;6.994;2023-04-15T01:33:53;6.10;99.90
4324;DHT22;2175;51.018;6.994;2023-04-15T01:36:19;6.10;99.90
4324;DHT22;2175;51.018;6.994;2023-04-15T01:38:44;6.00;99.90
4324;DHT22;2175;51.018;6.994;2023-04-15T01:41:10;6.00;99.90
4324;DHT22;2175;51.018;6.994;2023-04-15T01:43:36;6.00;99.90
4324;DHT22;2175;51.018;6.994;2023-04-15T01:46:02;6.00;99.90
4324;DHT22;2175;51.018;6.994;2023-04-15T01:48:31;6.00;99.90
4324;DHT22;2175;51.018;6.994;2023-04-15T01:50:58;5.90;99.90
4324;DHT22;2175;51.018;6.994;2023-04-15T01:53:24;5.80;99.90
4324;DHT22;2175;51.018;6.994;2023-04-15T01:55:51;5.70;99.90
4324;DHT22;2175;51.018;6.994;2023-04-15T01:58:22;5.70;99.90
4324;DHT22;2175;51.018;6.994;2023-04-15T02:00:55;5.70;99.90
4324;DHT22;2175;51.018;6.994;2023-04-15T02:03:57;5.50;99.90
4324;DHT22;2175;51.018;6.994;2023-04-15T02:06:35;5.50;99.90
4324;DHT22;2175;51.018;6.994;2023-04-15T02:09:07;5.50;99.90
4324;DHT22;2175;51.018;6.994;2023-04-15T02:11:51;5.60;99.90
4324;DHT22;2175;51.018;6.994;2023-04-15T02:14:29;5.50;99.90
4324;DHT22;2175;51.018;6.994;2023-04-15T02:16:59;5.60;99.90
4324;DHT22;2175;51.018;6.994;2023-04-15T02:19:38;5.50;99.90
4324;DHT22;2175;51.018;6.994;2023-04-15T02:22:08;5.50;99.90
4324;DHT22;2175;51.018;6.994;2023-04-15T02:24:37;5.60;99.90
4324;DHT22;2175;51.018;6.994;2023-04-15T02:27:36;5.60;99.90
4324;DHT22;2175;51.018;6.994;2023-04-15T02:30:02;5.50;99.90
4324;DHT22;2175;51.018;6.994;2023-04-15T02:32:28;5.40;99.90
4324;DHT22;2175;51.018;6.994;2023-04-15T02:34:54;5.40;99.90
4324;DHT22;2175;51.018;6.994;2023-04-15T02:37:19;5.40;99.90
4324;DHT22;2175;51.018;6.994;2023-04-15T02:39:45;5.40;99.90
4324;DHT22;2175;51.018;6.994;2023-04-15T02:42:11;5.40;99.90
4324;DHT22;2175;51.018;6.994;2023-04-15T02:44:37;5.40;99.90
4324;DHT22;2175;51.018;6.994;2023-04-15T02:47:03;5.30;99.90
4324;DHT22;2175;51.018;6.994;2023-04-15T02:49:31;5.20;99.90
4324;DHT22;2175;51.018;6.994;2023-04-15T02:51:56;5.20;99.90
4324;DHT22;2175;51.018;6.994;2023-04-15T02:54:23;5.20;99.90
4324;DHT22;2175;51.018;6.994;2023-04-15T02:56:48;5.20;99.90
4324;DHT22;2175;51.018;6.994;2023-04-15T02:59:15;5.20;99.90
4324;DHT22;2175;51.018;6.994;2023-04-15T03:01:41;5.00;99.90
4324;DHT22;2175;51.018;6.994;2023-04-15T03:04:06;5.00;99.90
4324;DHT22;2175;51.018;6.994;2023-04-15T03:06:33;5.00;99.90
4324;DHT22;2175;51.018;6.994;2023-04-15T03:08:59;5.00;99.90
4324;DHT22;2175;51.018;6.994;2023-04-15T03:11:27;5.00;99.90
4324;DHT22;2175;51.018;6.994;2023-04-15T03:13:53;5.00;99.90
4324;DHT22;2175;51.018;6.994;2023-04-15T03:16:18;5.00;99.90
4324;DHT22;2175;51.018;6.994;2023-04-15T03:18:44;5.10;99.90
4324;DHT22;2175;51.018;6.994;2023-04-15T03:21:09;5.00;99.90
4324;DHT22;2175;51.018;6.994;2023-04-15T03:23:35;5.00;99.90
4324;DHT22;2175;51.018;6.994;2023-04-15T03:26:01;4.90;99.90
4324;DHT22;2175;51.018;6.994;2023-04-15T03:28:27;5.00;99.90
4324;DHT22;2175;51.018;6.994;2023-04-15T03:30:53;4.90;99.90
4324;DHT22;2175;51.018;6.994;2023-04-15T03:33:19;4.90;99.90
4324;DHT22;2175;51.018;6.994;2023-04-15T03:35:45;4.90;99.90
4324;DHT22;2175;51.018;6.994;2023-04-15T03:38:11;4.90;99.90
4324;DHT22;2175;51.018;6.994;2023-04-15T03:40:38;5.00;99.90
4324;DHT22;2175;51.018;6.994;2023-04-15T03:43:03;4.80;99.90
4324;DHT22;2175;51.018;6.994;2023-04-15T03:45:29;4.80;99.90
4324;DHT22;2175;51.018;6.994;2023-04-15T03:47:54;4.80;99.90
4324;DHT22;2175;51.018;6.994;2023-04-15T03:50:20;4.90;99.90
4324;DHT22;2175;51.018;6.994;2023-04-15T03:52:46;4.70;99.90
4324;DHT22;2175;51.018;6.994;2023-04-15T03:55:11;4.60;99.90
4324;DHT22;2175;51.018;6.994;2023-04-15T03:57:37;4.70;99.90
4324;DHT22;2175;51.018;6.994;2023-04-15T04:00:05;4.70;99.90
4324;DHT22;2175;51.018;6.994;2023-04-15T04:02:31;4.70;99.90
4324;DHT22;2175;51.018;6.994;2023-04-15T04:04:56;4.60;99.90
4324;DHT22;2175;51.018;6.994;2023-04-15T04:07:23;4.60;99.90
4324;DHT22;2175;51.018;6.994;2023-04-15T04:09:49;4.50;99.90
4324;DHT22;2175;51.018;6.994;2023-04-15T04:12:14;4.40;99.90
4324;DHT22;2175;51.018;6.994;2023-04-15T04:14:40;4.50;99.90
4324;DHT22;2175;51.018;6.994;2023-04-15T04:17:06;4.50;99.90
4324;DHT22;2175;51.018;6.994;2023-04-15T04:19:32;4.40;99.90
4324;DHT22;2175;51.018;6.994;2023-04-15T04:21:57;4.40;99.90
4324;DHT22;2175;51.018;6.994;2023-04-15T04:24:23;4.30;99.90
4324;DHT22;2175;51.018;6.994;2023-04-15T04:26:48;4.40;99.90
4324;DHT22;2175;51.018;6.994;2023-04-15T04:29:14;4.30;99.90
4324;DHT22;2175;51.018;6.994;2023-04-15T04:31:40;4.30;99.90
4324;DHT22;2175;51.018;6.994;2023-04-15T04:34:05;4.30;99.90
4324;DHT22;2175;51.018;6.994;2023-04-15T04:36:31;4.30;99.90
4324;DHT22;2175;51.018;6.994;2023-04-15T04:38:56;4.40;99.90
4324;DHT22;2175;51.018;6.994;2023-04-15T04:41:22;4.40;99.90
4324;DHT22;2175;51.018;6.994;2023-04-15T04:43:48;4.40;99.90
4324;DHT22;2175;51.018;6.994;2023-04-15T04:46:13;4.30;99.90
4324;DHT22;2175;51.018;6.994;2023-04-15T04:48:39;4.30;99.90
4324;DHT22;2175;51.018;6.994;2023-04-15T04:51:05;4.30;99.90
4324;DHT22;2175;51.018;6.994;2023-04-15T04:53:32;4.40;99.90
4324;DHT22;2175;51.018;6.994;2023-04-15T04:55:58;4.40;99.90
4324;DHT22;2175;51.018;6.994;2023-04-15T04:58:23;4.20;99.90
4324;DHT22;2175;51.018;6.994;2023-04-15T05:00:50;4.20;99.90
4324;DHT22;2175;51.018;6.994;2023-04-15T05:03:16;4.10;99.90
4324;DHT22;2175;51.018;6.994;2023-04-15T05:05:41;4.10;99.90
4324;DHT22;2175;51.018;6.994;2023-04-15T05:08:07;4.10;99.90
4324;DHT22;2175;51.018;6.994;2023-04-15T05:10:33;4.10;99.90
4324;DHT22;2175;51.018;6.994;2023-04-15T05:12:59;4.20;99.90
4324;DHT22;2175;51.018;6.994;2023-04-15T05:15:24;4.10;99.90
4324;DHT22;2175;51.018;6.994;2023-04-15T05:17:50;4.20;99.90
4324;DHT22;2175;51.018;6.994;2023-04-15T05:20:16;4.30;99.90
4324;DHT22;2175;51.018;6.994;2023-04-15T05:22:42;4.40;99.90
4324;DHT22;2175;51.018;6.994;2023-04-15T05:25:07;4.50;99.90
4324;DHT22;2175;51.018;6.994;2023-04-15T05:27:34;4.60;99.90
4324;DHT22;2175;51.018;6.994;2023-04-15T05:29:59;4.70;99.90
4324;DHT22;2175;51.018;6.994;2023-04-15T05:32:25;4.70;99.90
4324;DHT22;2175;51.018;6.994;2023-04-15T05:34:51;4.50;99.90
4324;DHT22;2175;51.018;6.994;2023-04-15T05:37:16;4.60;99.90
4324;DHT22;2175;51.018;6.994;2023-04-15T05:39:45;4.70;99.90
4324;DHT22;2175;51.018;6.994;2023-04-15T05:42:10;4.90;99.90
4324;DHT22;2175;51.018;6.994;2023-04-15T05:44:36;5.00;99.90
4324;DHT22;2175;51.018;6.994;2023-04-15T05:47:02;5.20;99.90
4324;DHT22;2175;51.018;6.994;2023-04-15T05:49:28;5.30;99.90
4324;DHT22;2175;51.018;6.994;2023-04-15T05:51:54;5.40;99.90
4324;DHT22;2175;51.018;6.994;2023-04-15T05:54:19;5.50;99.90
4324;DHT22;2175;51.018;6.994;2023-04-15T05:56:47;5.70;99.90
4324;DHT22;2175;51.018;6.994;2023-04-15T05:59:13;5.80;99.90
4324;DHT22;2175;51.018;6.994;2023-04-15T06:01:39;6.00;99.90
4324;DHT22;2175;51.018;6.994;2023-04-15T06:04:04;6.20;99.90
4324;DHT22;2175;51.018;6.994;2023-04-15T06:06:30;6.30;99.90
4324;DHT22;2175;51.018;6.994;2023-04-15T06:08:57;6.50;99.90
4324;DHT22;2175;51.018;6.994;2023-04-15T06:11:22;6.70;99.90
4324;DHT22;2175;51.018;6.994;2023-04-15T06:13:48;6.70;99.90
4324;DHT22;2175;51.018;6.994;2023-04-15T06:16:14;6.70;99.90
4324;DHT22;2175;51.018;6.994;2023-04-15T06:18:39;6.90;99.90
4324;DHT22;2175;51.018;6.994;2023-04-15T06:21:05;7.00;99.90
4324;DHT22;2175;51.018;6.994;2023-04-15T06:23:34;7.20;99.90
4324;DHT22;2175;51.018;6.994;2023-04-15T06:26:01;7.30;99.90
4324;DHT22;2175;51.018;6.994;2023-04-15T06:28:26;7.60;99.90
4324;DHT22;2175;51.018;6.994;2023-04-15T06:30:52;7.70;99.90
4324;DHT22;2175;51.018;6.994;2023-04-15T06:33:18;8.00;99.90
4324;DHT22;2175;51.018;6.994;2023-04-15T06:35:44;8.20;99.90
4324;DHT22;2175;51.018;6.994;2023-04-15T06:38:10;8.40;99.90
4324;DHT22;2175;51.018;6.994;2023-04-15T06:40:35;8.60;99.90
4324;DHT22;2175;51.018;6.994;2023-04-15T06:43:01;8.70;99.90
4324;DHT22;2175;51.018;6.994;2023-04-15T06:45:26;8.90;99.90
4324;DHT22;2175;51.018;6.994;2023-04-15T06:47:52;9.10;99.90
4324;DHT22;2175;51.018;6.994;2023-04-15T06:50:18;9.40;99.90
4324;DHT22;2175;51.018;6.994;2023-04-15T06:52:43;9.50;99.90
4324;DHT22;2175;51.018;6.994;2023-04-15T06:55:09;9.80;99.90
4324;DHT22;2175;51.018;6.994;2023-04-15T06:57:35;10.00;99.90
4324;DHT22;2175;51.018;6.994;2023-04-15T07:00:01;10.20;99.90
4324;DHT22;2175;51.018;6.994;2023-04-15T07:02:26;10.30;99.90
4324;DHT22;2175;51.018;6.994;2023-04-15T07:04:52;10.40;99.90
4324;DHT22;2175;51.018;6.994;2023-04-15T07:07:17;10.60;99.90
4324;DHT22;2175;51.018;6.994;2023-04-15T07:09:43;10.80;99.90
4324;DHT22;2175;51.018;6.994;2023-04-15T07:12:09;11.00;99.90
4324;DHT22;2175;51.018;6.994;2023-04-15T07:14:35;11.20;99.90
4324;DHT22;2175;51.018;6.994;2023-04-15T07:17:01;11.20;99.90
4324;DHT22;2175;51.018;6.994;2023-04-15T07:19:27;11.40;99.90
4324;DHT22;2175;51.018;6.994;2023-04-15T07:21:53;11.60;99.90
4324;DHT22;2175;51.018;6.994;2023-04-15T07:24:18;11.80;99.90
4324;DHT22;2175;51.018;6.994;2023-04-15T07:26:45;12.00;99.90
4324;DHT22;2175;51.018;6.994;2023-04-15T07:29:11;12.10;99.90
4324;DHT22;2175;51.018;6.994;2023-04-15T07:31:36;12.20;99.90
4324;DHT22;2175;51.018;6.994;2023-04-15T07:34:02;12.20;99.90
4324;DHT22;2175;51.018;6.994;2023-04-15T07:36:29;12.40;99.90
4324;DHT22;2175;51.018;6.994;2023-04-15T07:38:55;12.80;99.90
4324;DHT22;2175;51.018;6.994;2023-04-15T07:41:22;13.60;99.90
4324;DHT22;2175;51.018;6.994;2023-04-15T07:43:48;14.30;99.90
4324;DHT22;2175;51.018;6.994;2023-04-15T07:46:14;14.70;99.90
4324;DHT22;2175;51.018;6.994;2023-04-15T07:48:40;14.80;99.90
4324;DHT22;2175;51.018;6.994;2023-04-15T07:51:07;15.00;99.90
4324;DHT22;2175;51.018;6.994;2023-04-15T07:53:33;15.00;99.90
4324;DHT22;2175;51.018;6.994;2023-04-15T07:55:58;15.00;99.90
4324;DHT22;2175;51.018;6.994;2023-04-15T07:58:24;14.90;99.90
4324;DHT22;2175;51.018;6.994;2023-04-15T08:00:50;15.10;99.90
4324;DHT22;2175;51.018;6.994;2023-04-15T08:03:16;15.10;99.90
4324;DHT22;2175;51.018;6.994;2023-04-15T08:05:41;15.00;99.90
4324;DHT22;2175;51.018;6.994;2023-04-15T08:08:07;14.80;99.90
4324;DHT22;2175;51.018;6.994;2023-04-15T08:10:33;14.90;99.90
4324;DHT22;2175;51.018;6.994;2023-04-15T08:12:59;15.40;99.90
4324;DHT22;2175;51.018;6.994;2023-04-15T08:15:26;15.90;99.90
4324;DHT22;2175;51.018;6.994;2023-04-15T08:17:52;16.20;99.90
4324;DHT22;2175;51.018;6.994;2023-04-15T08:20:18;16.40;99.90
4324;DHT22;2175;51.018;6.994;2023-04-15T08:22:44;16.60;99.90
4324;DHT22;2175;51.018;6.994;2023-04-15T08:25:10;16.50;99.90
4324;DHT22;2175;51.018;6.994;2023-04-15T08:27:36;16.30;99.90
4324;DHT22;2175;51.018;6.994;2023-04-15T08:30:02;16.50;99.90
4324;DHT22;2175;51.018;6.994;2023-04-15T08:32:28;16.60;99.90
4324;DHT22;2175;51.018;6.994;2023-04-15T08:34:53;16.40;99.90
4324;DHT22;2175;51.018;6.994;2023-04-15T08:37:19;15.70;99.90
4324;DHT22;2175;51.018;6.994;2023-04-15T08:39:45;15.30;99.90
4324;DHT22;2175;51.018;6.994;2023-04-15T08:42:16;14.90;99.90
4324;DHT22;2175;51.018;6.994;2023-04-15T08:44:42;14.50;99.90
4324;DHT22;2175;51.018;6.994;2023-04-15T08:47:12;14.50;99.90
4324;DHT22;2175;51.018;6.994;2023-04-15T08:49:42;14.30;99.90
4324;DHT22;2175;51.018;6.994;2023-04-15T08:52:08;14.20;99.90
4324;DHT22;2175;51.018;6.994;2023-04-15T08:54:34;14.10;99.90
4324;DHT22;2175;51.018;6.994;2023-04-15T08:57:00;14.20;99.90
4324;DHT22;2175;51.018;6.994;2023-04-15T08:59:29;14.60;99.90
4324;DHT22;2175;51.018;6.994;2023-04-15T09:01:56;15.00;99.90
4324;DHT22;2175;51.018;6.994;2023-04-15T09:04:21;15.50;99.90
4324;DHT22;2175;51.018;6.994;2023-04-15T09:06:47;15.90;99.90
4324;DHT22;2175;51.018;6.994;2023-04-15T09:09:12;16.20;99.90
4324;DHT22;2175;51.018;6.994;2023-04-15T09:11:41;16.70;99.90
4324;DHT22;2175;51.018;6.994;2023-04-15T09:14:07;17.10;99.90
4324;DHT22;2175;51.018;6.994;2023-04-15T09:16:59;16.80;99.90
4324;DHT22;2175;51.018;6.994;2023-04-15T09:19:25;16.40;99.90
4324;DHT22;2175;51.018;6.994;2023-04-15T09:21:56;15.70;99.90
4324;DHT22;2175;51.018;6.994;2023-04-15T09:24:23;15.50;99.90
4324;DHT22;2175;51.018;6.994;2023-04-15T09:26:52;15.60;99.90
4324;DHT22;2175;51.018;6.994;2023-04-15T09:29:19;15.50;99.90
4324;DHT22;2175;51.018;6.994;2023-04-15T09:31:45;15.70;99.90
4324;DHT22;2175;51.018;6.994;2023-04-15T09:34:11;16.00;99.90
4324;DHT22;2175;51.018;6.994;2023-04-15T09:39:12;16.30;99.90
4324;DHT22;2175;51.018;6.994;2023-04-15T09:41:38;16.10;99.90
4324;DHT22;2175;51.018;6.994;2023-04-15T09:44:04;16.00;99.90
4324;DHT22;2175;51.018;6.994;2023-04-15T09:46:41;16.40;99.90
4324;DHT22;2175;51.018;6.994;2023-04-15T09:49:08;17.40;99.90
4324;DHT22;2175;51.018;6.994;2023-04-15T09:51:34;18.20;99.90
4324;DHT22;2175;51.018;6.994;2023-04-15T09:54:00;18.50;99.90
4324;DHT22;2175;51.018;6.994;2023-04-15T09:56:35;18.50;99.90
4324;DHT22;2175;51.018;6.994;2023-04-15T09:59:02;18.50;99.90
4324;DHT22;2175;51.018;6.994;2023-04-15T10:01:28;18.00;99.90
4324;DHT22;2175;51.018;6.994;2023-04-15T10:03:56;17.00;99.90
4324;DHT22;2175;51.018;6.994;2023-04-15T10:06:24;15.90;99.90
4324;DHT22;2175;51.018;6.994;2023-04-15T10:08:51;15.90;99.90
4324;DHT22;2175;51.018;6.994;2023-04-15T10:11:19;16.30;99.90
4324;DHT22;2175;51.018;6.994;2023-04-15T10:13:46;16.20;99.90
4324;DHT22;2175;51.018;6.994;2023-04-15T10:16:15;16.60;99.90
4324;DHT22;2175;51.018;6.994;2023-04-15T10:18:47;16.90;99.90
4324;DHT22;2175;51.018;6.994;2023-04-15T10:21:15;16.90;99.90
4324;DHT22;2175;51.018;6.994;2023-04-15T10:23:44;16.90;99.90
4324;DHT22;2175;51.018;6.994;2023-04-15T10:26:11;16.50;99.90
4324;DHT22;2175;51.018;6.994;2023-04-15T10:28:39;16.70;99.90
4324;DHT22;2175;51.018;6.994;2023-04-15T10:31:05;16.70;99.90
4324;DHT22;2175;51.018;6.994;2023-04-15T10:33:32;16.80;99.90
4324;DHT22;2175;51.018;6.994;2023-04-15T10:35:59;16.70;99.90
4324;DHT22;2175;51.018;6.994;2023-04-15T10:38:44;16.20;99.90
4324;DHT22;2175;51.018;6.994;2023-04-15T10:46:18;16.10;99.90
4324;DHT22;2175;51.018;6.994;2023-04-15T10:48:49;16.00;99.90
4324;DHT22;2175;51.018;6.994;2023-04-15T10:51:16;15.70;99.90
4324;DHT22;2175;51.018;6.994;2023-04-15T10:53:50;15.60;99.90
4324;DHT22;2175;51.018;6.994;2023-04-15T10:56:20;15.30;99.90
4324;DHT22;2175;51.018;6.994;2023-04-15T10:58:46;15.10;99.90
4324;DHT22;2175;51.018;6.994;2023-04-15T11:01:12;15.00;99.90
4324;DHT22;2175;51.018;6.994;2023-04-15T11:03:39;14.90;99.90
4324;DHT22;2175;51.018;6.994;2023-04-15T11:06:06;15.00;99.90
4324;DHT22;2175;51.018;6.994;2023-04-15T11:08:58;14.90;99.90
4324;DHT22;2175;51.018;6.994;2023-04-15T11:14:32;14.70;99.90
4324;DHT22;2175;51.018;6.994;2023-04-15T11:16:58;14.80;99.90
4324;DHT22;2175;51.018;6.994;2023-04-15T11:19:24;14.60;99.90
4324;DHT22;2175;51.018;6.994;2023-04-15T11:21:50;14.70;99.90
4324;DHT22;2175;51.018;6.994;2023-04-15T11:24:35;14.50;99.90
4324;DHT22;2175;51.018;6.994;2023-04-15T11:27:01;14.50;99.90
4324;DHT22;2175;51.018;6.994;2023-04-15T11:29:32;14.30;99.90
4324;DHT22;2175;51.018;6.994;2023-04-15T11:32:08;14.60;99.90
4324;DHT22;2175;51.018;6.994;2023-04-15T11:34:33;14.50;99.90
4324;DHT22;2175;51.018;6.994;2023-04-15T11:37:03;14.80;99.90
4324;DHT22;2175;51.018;6.994;2023-04-15T11:39:30;14.60;99.90
4324;DHT22;2175;51.018;6.994;2023-04-15T11:41:56;14.60;99.90
4324;DHT22;2175;51.018;6.994;2023-04-15T11:44:21;14.90;99.90
4324;DHT22;2175;51.018;6.994;2023-04-15T11:46:47;14.90;99.90
4324;DHT22;2175;51.018;6.994;2023-04-15T11:49:25;15.00;99.90
4324;DHT22;2175;51.018;6.994;2023-04-15T11:51:51;15.20;99.90
4324;DHT22;2175;51.018;6.994;2023-04-15T11:54:20;15.20;99.90
4324;DHT22;2175;51.018;6.994;2023-04-15T11:56:50;15.10;99.90
4324;DHT22;2175;51.018;6.994;2023-04-15T11:59:16;14.90;99.90
4324;DHT22;2175;51.018;6.994;2023-04-15T12:01:41;14.60;99.90
4324;DHT22;2175;51.018;6.994;2023-04-15T12:04:13;14.40;99.90
4324;DHT22;2175;51.018;6.994;2023-04-15T12:06:39;14.40;99.90
4324;DHT22;2175;51.018;6.994;2023-04-15T12:14:29;14.10;99.90
4324;DHT22;2175;51.018;6.994;2023-04-15T12:17:01;13.80;99.90
4324;DHT22;2175;51.018;6.994;2023-04-15T12:19:45;13.60;99.90
4324;DHT22;2175;51.018;6.994;2023-04-15T12:22:13;13.60;99.90
4324;DHT22;2175;51.018;6.994;2023-04-15T12:24:40;13.60;99.90
4324;DHT22;2175;51.018;6.994;2023-04-15T12:27:10;13.50;99.90
4324;DHT22;2175;51.018;6.994;2023-04-15T12:29:37;13.50;99.90
4324;DHT22;2175;51.018;6.994;2023-04-15T12:32:07;13.40;99.90
4324;DHT22;2175;51.018;6.994;2023-04-15T12:34:37;13.40;99.90
4324;DHT22;2175;51.018;6.994;2023-04-15T12:37:06;13.30;99.90
4324;DHT22;2175;51.018;6.994;2023-04-15T12:39:35;13.30;99.90
4324;DHT22;2175;51.018;6.994;2023-04-15T12:42:02;13.20;99.90
4324;DHT22;2175;51.018;6.994;2023-04-15T12:44:28;13.10;99.90
4324;DHT22;2175;51.018;6.994;2023-04-15T12:46:54;13.10;99.90
4324;DHT22;2175;51.018;6.994;2023-04-15T12:49:21;13.10;99.90
4324;DHT22;2175;51.018;6.994;2023-04-15T12:51:52;13.10;99.90
4324;DHT22;2175;51.018;6.994;2023-04-15T12:54:18;13.00;99.90
4324;DHT22;2175;51.018;6.994;2023-04-15T12:56:46;12.90;99.90
4324;DHT22;2175;51.018;6.994;2023-04-15T12:59:12;12.90;99.90
4324;DHT22;2175;51.018;6.994;2023-04-15T13:01:38;12.70;99.90
4324;DHT22;2175;51.018;6.994;2023-04-15T13:04:04;12.70;99.90
4324;DHT22;2175;51.018;6.994;2023-04-15T13:06:30;12.60;99.90
4324;DHT22;2175;51.018;6.994;2023-04-15T13:08:58;12.60;99.90
4324;DHT22;2175;51.018;6.994;2023-04-15T13:11:24;12.50;99.90
4324;DHT22;2175;51.018;6.994;2023-04-15T13:13:50;12.50;99.90
4324;DHT22;2175;51.018;6.994;2023-04-15T13:16:17;12.60;99.90
4324;DHT22;2175;51.018;6.994;2023-04-15T13:18:43;12.60;99.90
4324;DHT22;2175;51.018;6.994;2023-04-15T13:21:11;12.40;99.90
4324;DHT22;2175;51.018;6.994;2023-04-15T13:23:36;12.40;99.90
4324;DHT22;2175;51.018;6.994;2023-04-15T13:26:02;12.30;99.90
4324;DHT22;2175;51.018;6.994;2023-04-15T13:28:28;12.20;99.90
4324;DHT22;2175;51.018;6.994;2023-04-15T13:30:54;12.30;99.90
4324;DHT22;2175;51.018;6.994;2023-04-15T13:33:20;12.30;99.90
4324;DHT22;2175;51.018;6.994;2023-04-15T13:35:46;12.40;99.90
4324;DHT22;2175;51.018;6.994;2023-04-15T13:38:11;12.30;99.90
4324;DHT22;2175;51.018;6.994;2023-04-15T13:40:37;12.30;99.90
4324;DHT22;2175;51.018;6.994;2023-04-15T13:43:02;12.30;99.90
4324;DHT22;2175;51.018;6.994;2023-04-15T13:45:29;12.30;99.90
4324;DHT22;2175;51.018;6.994;2023-04-15T13:47:55;12.30;99.90
4324;DHT22;2175;51.018;6.994;2023-04-15T13:50:21;12.40;99.90
4324;DHT22;2175;51.018;6.994;2023-04-15T13:52:47;12.50;99.90
4324;DHT22;2175;51.018;6.994;2023-04-15T13:55:13;12.70;99.90
4324;DHT22;2175;51.018;6.994;2023-04-15T13:57:38;12.80;99.90
4324;DHT22;2175;51.018;6.994;2023-04-15T14:00:05;12.80;99.90
4324;DHT22;2175;51.018;6.994;2023-04-15T14:02:31;13.00;99.90
4324;DHT22;2175;51.018;6.994;2023-04-15T14:04:56;12.90;99.90
4324;DHT22;2175;51.018;6.994;2023-04-15T14:07:22;12.80;99.90
4324;DHT22;2175;51.018;6.994;2023-04-15T14:09:48;12.80;99.90
4324;DHT22;2175;51.018;6.994;2023-04-15T14:12:13;12.80;99.90
4324;DHT22;2175;51.018;6.994;2023-04-15T14:14:39;12.70;99.90
4324;DHT22;2175;51.018;6.994;2023-04-15T14:17:05;12.80;99.90
4324;DHT22;2175;51.018;6.994;2023-04-15T14:19:31;12.80;99.90
4324;DHT22;2175;51.018;6.994;2023-04-15T14:21:57;12.80;99.90
4324;DHT22;2175;51.018;6.994;2023-04-15T14:24:23;12.80;99.90
4324;DHT22;2175;51.018;6.994;2023-04-15T14:26:49;12.80;99.90
4324;DHT22;2175;51.018;6.994;2023-04-15T14:29:15;12.80;99.90
4324;DHT22;2175;51.018;6.994;2023-04-15T14:31:41;12.90;99.90
4324;DHT22;2175;51.018;6.994;2023-04-15T14:34:09;12.80;99.90
4324;DHT22;2175;51.018;6.994;2023-04-15T14:36:35;12.90;99.90
4324;DHT22;2175;51.018;6.994;2023-04-15T14:39:00;12.90;99.90
4324;DHT22;2175;51.018;6.994;2023-04-15T14:41:26;12.90;99.90
4324;DHT22;2175;51.018;6.994;2023-04-15T14:43:52;12.90;99.90
4324;DHT22;2175;51.018;6.994;2023-04-15T14:46:17;12.80;99.90
4324;DHT22;2175;51.018;6.994;2023-04-15T14:48:43;12.70;99.90
4324;DHT22;2175;51.018;6.994;2023-04-15T14:51:09;12.50;99.90
4324;DHT22;2175;51.018;6.994;2023-04-15T14:53:34;12.30;99.90
4324;DHT22;2175;51.018;6.994;2023-04-15T14:56:00;12.40;99.90
4324;DHT22;2175;51.018;6.994;2023-04-15T14:58:25;12.40;99.90
4324;DHT22;2175;51.018;6.994;2023-04-15T15:00:51;12.50;99.90
4324;DHT22;2175;51.018;6.994;2023-04-15T15:03:17;12.60;99.90
4324;DHT22;2175;51.018;6.994;2023-04-15T15:05:44;12.60;99.90
4324;DHT22;2175;51.018;6.994;2023-04-15T15:08:11;12.60;99.90
4324;DHT22;2175;51.018;6.994;2023-04-15T15:10:38;12.50;99.90
4324;DHT22;2175;51.018;6.994;2023-04-15T15:13:05;12.30;99.90
4324;DHT22;2175;51.018;6.994;2023-04-15T15:15:32;12.30;99.90
4324;DHT22;2175;51.018;6.994;2023-04-15T15:17:57;12.30;99.90
4324;DHT22;2175;51.018;6.994;2023-04-15T15:20:23;12.20;99.90
4324;DHT22;2175;51.018;6.994;2023-04-15T15:22:49;12.20;99.90
4324;DHT22;2175;51.018;6.994;2023-04-15T15:25:15;12.20;99.90
4324;DHT22;2175;51.018;6.994;2023-04-15T15:27:41;12.10;99.90
4324;DHT22;2175;51.018;6.994;2023-04-15T15:30:07;12.10;99.90
4324;DHT22;2175;51.018;6.994;2023-04-15T15:32:33;12.00;99.90
4324;DHT22;2175;51.018;6.994;2023-04-15T15:34:58;11.90;99.90
4324;DHT22;2175;51.018;6.994;2023-04-15T15:37:24;11.90;99.90
4324;DHT22;2175;51.018;6.994;2023-04-15T15:39:51;11.80;99.90
4324;DHT22;2175;51.018;6.994;2023-04-15T15:42:20;11.70;99.90
4324;DHT22;2175;51.018;6.994;2023-04-15T15:44:46;11.70;99.90
4324;DHT22;2175;51.018;6.994;2023-04-15T15:47:14;11.80;99.90
4324;DHT22;2175;51.018;6.994;2023-04-15T15:49:39;11.80;99.90
4324;DHT22;2175;51.018;6.994;2023-04-15T15:52:05;11.70;99.90
4324;DHT22;2175;51.018;6.994;2023-04-15T15:54:31;11.70;99.90
4324;DHT22;2175;51.018;6.994;2023-04-15T15:56:56;11.70;99.90
4324;DHT22;2175;51.018;6.994;2023-04-15T15:59:23;11.70;99.90
4324;DHT22;2175;51.018;6.994;2023-04-15T16:01:50;11.60;99.90
4324;DHT22;2175;51.018;6.994;2023-04-15T16:04:15;11.60;99.90
4324;DHT22;2175;51.018;6.994;2023-04-15T16:06:41;11.50;99.90
4324;DHT22;2175;51.018;6.994;2023-04-15T16:09:09;11.40;99.90
4324;DHT22;2175;51.018;6.994;2023-04-15T16:11:35;11.30;99.90
4324;DHT22;2175;51.018;6.994;2023-04-15T16:14:00;11.30;99.90
4324;DHT22;2175;51.018;6.994;2023-04-15T16:16:26;11.20;99.90
4324;DHT22;2175;51.018;6.994;2023-04-15T16:18:51;11.20;99.90
4324;DHT22;2175;51.018;6.994;2023-04-15T16:21:17;11.20;99.90
4324;DHT22;2175;51.018;6.994;2023-04-15T16:23:44;11.20;99.90